Time;durP1;ratioP1;P1;durP2;ratioP2;P2;SDS_P1;SDS_P2;PMS_P1;PMS_P2;Temp;Humidity;BMP_temperature;BMP_pressure;BME280_temperature;BME280_humidity;BME280_pressure;Samples;Min_cycle;Max_cycle;Signal;HPM_P1;HPM_P2
2022/04/12 00:00:57;;;;;;;10.75;5.43;;;;;;;8.18;61.52;101024.34;5050941;28;20041;-70
2022/04/12 00:03:23;;;;;;;11.73;5.63;;;;;;;8.20;61.74;101032.13;5050652;28;20654;-70
2022/04/12 00:05:48;;;;;;;9.05;5.00;;;;;;;8.16;61.36;101029.00;5050173;28;20068;-70
2022/04/12 00:08:13;;;;;;;8.10;4.78;;;;;;;8.12;61.67;101015.25;5050692;28;20033;-70
2022/04/12 00:10:39;;;;;;;13.18;5.50;;;;;;;8.14;61.81;101028.34;5050617;28;20472;-70
2022/04/12 00:13:05;;;;;;;12.32;5.55;;;;;;;8.16;61.11;101020.22;5050597;28;20066;-70
2022/04/12 00:15:30;;;;;;;11.30;5.38;;;;;;;8.18;60.58;101007.59;5050607;28;20552;-70
2022/04/12 00:20:41;;;;;;;10.10;4.90;;;;;;;8.26;60.34;100996.91;5050901;28;20068;-70
2022/04/12 00:23:06;;;;;;;11.95;5.70;;;;;;;8.25;61.19;100992.56;5050432;28;20097;-70
2022/04/12 00:25:32;;;;;;;9.48;4.22;;;;;;;8.27;60.55;100991.38;5050284;28;20090;-70
2022/04/12 00:27:59;;;;;;;11.20;5.05;;;;;;;8.28;60.42;100993.06;5050311;28;20028;-70
2022/04/12 00:30:26;;;;;;;10.38;5.00;;;;;;;8.29;60.27;100997.38;5050222;28;20040;-70
2022/04/12 00:32:52;;;;;;;13.13;5.30;;;;;;;8.28;60.26;100993.06;5049984;28;20033;-70
2022/04/12 00:35:19;;;;;;;9.52;5.28;;;;;;;8.29;60.70;100993.88;5050032;28;20020;-70
2022/04/12 00:37:45;;;;;;;8.25;5.32;;;;;;;8.29;60.49;100997.38;5049384;28;20036;-70
2022/04/12 00:40:11;;;;;;;8.85;5.38;;;;;;;8.30;60.27;100987.56;5049861;28;20087;-70
2022/04/12 00:42:37;;;;;;;8.80;5.07;;;;;;;8.32;60.26;100986.38;5049868;28;20107;-70
2022/04/12 00:45:03;;;;;;;9.85;4.97;;;;;;;8.31;60.27;100983.91;5049845;28;20025;-70
2022/04/12 00:47:29;;;;;;;9.98;5.15;;;;;;;8.31;60.51;100990.03;5049659;28;20115;-70
2022/04/12 00:49:54;;;;;;;9.52;5.18;;;;;;;8.26;60.68;100979.13;5049925;28;20124;-70
2022/04/12 00:52:20;;;;;;;9.30;5.43;;;;;;;8.26;60.47;100979.13;5049899;28;20135;-70
2022/04/12 00:54:47;;;;;;;9.57;5.30;;;;;;;8.28;60.60;100986.94;5049613;28;20095;-70
2022/04/12 00:57:13;;;;;;;9.32;4.65;;;;;;;8.27;60.83;100985.25;5049729;28;20135;-70
2022/04/12 00:59:38;;;;;;;11.15;5.28;;;;;;;8.22;61.04;100980.47;5049864;28;20143;-70
2022/04/12 01:02:06;;;;;;;10.43;4.70;;;;;;;8.21;61.19;100985.97;5049715;28;20192;-70
2022/04/12 01:04:32;;;;;;;9.82;5.25;;;;;;;8.15;60.98;100978.69;5049667;28;20063;-70
2022/04/12 01:06:59;;;;;;;9.65;4.63;;;;;;;8.14;61.09;100977.88;5048825;28;20417;-70
2022/04/12 01:09:27;;;;;;;7.90;4.25;;;;;;;8.16;61.23;100981.19;5049610;28;20430;-70
2022/04/12 01:11:54;;;;;;;8.65;4.70;;;;;;;8.16;61.04;100983.84;5049675;28;20599;-70
2022/04/12 01:14:20;;;;;;;10.18;5.10;;;;;;;8.17;61.38;100993.47;5049483;28;20033;-70
2022/04/12 01:16:46;;;;;;;7.72;4.68;;;;;;;8.10;61.30;100989.88;5049508;28;20388;-70
2022/04/12 01:19:11;;;;;;;10.75;4.97;;;;;;;8.11;62.43;100979.06;5081741;28;20017;-70
2022/04/12 01:21:49;;;;;;;9.55;4.13;;;;;;;8.05;61.51;100984.28;5049573;28;20614;-70
2022/04/12 01:24:14;;;;;;;6.68;4.28;;;;;;;8.06;61.89;100985.91;5049401;28;20032;-70
2022/04/12 01:26:40;;;;;;;9.70;4.50;;;;;;;7.98;61.43;100968.19;5048996;28;20025;-70
2022/04/12 01:29:05;;;;;;;7.78;4.13;;;;;;;8.01;61.96;100975.00;5049278;28;20119;-70
2022/04/12 01:31:31;;;;;;;7.18;4.63;;;;;;;8.02;61.87;100979.31;5048682;28;20059;-70
2022/04/12 01:33:56;;;;;;;9.15;4.63;;;;;;;8.00;62.58;100986.63;5049300;28;20029;-70
2022/04/12 01:36:22;;;;;;;8.95;4.78;;;;;;;7.96;62.62;100986.13;5049039;28;20465;-70
2022/04/12 01:38:47;;;;;;;7.63;4.38;;;;;;;7.92;64.35;100984.84;5048618;28;20056;-70
2022/04/12 01:41:12;;;;;;;8.68;5.63;;;;;;;7.87;65.44;100979.22;5048771;28;20033;-70
2022/04/12 01:43:38;;;;;;;10.13;4.63;;;;;;;7.79;63.39;100972.16;5048692;28;20417;-70
2022/04/12 01:46:03;;;;;;;9.85;4.97;;;;;;;7.76;63.42;100977.00;5048965;28;20060;-70
2022/04/12 01:48:29;;;;;;;7.95;4.60;;;;;;;7.78;64.97;100986.44;5049111;28;20044;-70
2022/04/12 01:50:54;;;;;;;8.18;4.95;;;;;;;7.73;66.36;100979.97;5049051;28;20033;-70
2022/04/12 01:53:19;;;;;;;11.27;4.97;;;;;;;7.68;64.30;100986.66;5048907;28;20043;-70
2022/04/12 01:55:45;;;;;;;9.27;5.00;;;;;;;7.65;64.34;100979.03;5048779;28;20511;-70
2022/04/12 01:58:11;;;;;;;9.80;4.82;;;;;;;7.67;64.39;100986.81;5048899;28;20045;-70
2022/04/12 02:00:36;;;;;;;8.35;4.93;;;;;;;7.63;65.12;100969.59;5048980;28;20029;-70
2022/04/12 02:03:03;;;;;;;13.95;6.57;;;;;;;7.62;64.39;100970.56;5048820;28;20544;-70
2022/04/12 02:05:28;;;;;;;9.75;4.70;;;;;;;7.58;64.77;100966.63;5048883;28;20029;-70
2022/04/12 02:07:54;;;;;;;13.70;5.10;;;;;;;7.59;64.60;100958.47;5047431;28;20043;-71
2022/04/12 02:10:21;;;;;;;9.73;4.63;;;;;;;7.58;63.57;100948.06;5048731;28;20126;-70
2022/04/12 02:12:47;;;;;;;10.80;4.72;;;;;;;7.62;64.06;100949.34;5048754;28;20028;-70
2022/04/12 02:15:12;;;;;;;9.00;4.68;;;;;;;7.59;64.44;100958.47;5048842;28;20021;-70
2022/04/12 02:17:38;;;;;;;9.65;4.82;;;;;;;7.58;63.84;100966.63;5048760;28;20083;-70
2022/04/12 02:20:04;;;;;;;9.70;5.43;;;;;;;7.50;64.40;100958.72;5048243;28;20039;-70
2022/04/12 02:22:29;;;;;;;8.02;4.60;;;;;;;7.55;64.83;100969.63;5048799;28;20033;-70
2022/04/12 02:24:54;;;;;;;8.95;4.70;;;;;;;7.53;64.91;100971.63;5048838;28;20586;-70
2022/04/12 02:27:20;;;;;;;10.93;4.90;;;;;;;7.43;64.27;100953.25;5048675;28;20037;-70
2022/04/12 02:29:45;;;;;;;8.52;4.78;;;;;;;7.48;64.84;100966.84;5048594;28;20083;-70
2022/04/12 02:32:10;;;;;;;11.25;4.47;;;;;;;7.48;64.50;100964.19;5048255;28;20060;-70
2022/04/12 02:34:36;;;;;;;10.63;4.20;;;;;;;7.43;64.16;100954.09;5048529;28;20067;-70
2022/04/12 02:37:01;;;;;;;11.43;4.32;;;;;;;7.43;64.51;100955.91;5048732;28;20060;-70
2022/04/12 02:39:27;;;;;;;8.43;4.45;;;;;;;7.43;64.55;100953.25;5048597;28;20104;-70
2022/04/12 02:41:52;;;;;;;8.20;4.70;;;;;;;7.43;64.05;100947.97;5048708;28;20029;-70
2022/04/12 02:44:18;;;;;;;9.98;5.43;;;;;;;7.48;64.45;100950.91;5051833;28;20025;-70
2022/04/12 02:46:43;;;;;;;9.40;4.88;;;;;;;7.47;63.98;100942.13;5052032;28;20120;-70
2022/04/12 02:49:08;;;;;;;10.32;4.47;;;;;;;7.52;64.32;100948.72;5052144;28;20521;-70
2022/04/12 02:51:34;;;;;;;9.05;5.07;;;;;;;7.53;64.48;100947.75;5052085;28;20082;-70
2022/04/12 02:53:59;;;;;;;11.35;4.20;;;;;;;7.51;64.25;100944.44;5052209;28;20033;-70
2022/04/12 02:56:25;;;;;;;8.88;4.82;;;;;;;7.52;64.27;100940.75;5052064;28;20018;-70
2022/04/12 02:58:50;;;;;;;8.07;4.32;;;;;;;7.52;64.54;100938.97;5052167;28;20040;-70
2022/04/12 03:01:16;;;;;;;10.55;5.00;;;;;;;7.52;64.39;100938.97;5051867;28;20067;-70
2022/04/12 03:03:41;;;;;;;9.32;4.72;;;;;;;7.51;64.67;100933.81;5051869;28;20094;-70
2022/04/12 03:06:06;;;;;;;10.77;5.18;;;;;;;7.47;64.74;100931.53;5051882;28;20060;-70
2022/04/12 03:08:32;;;;;;;9.77;4.90;;;;;;;7.38;64.88;100913.97;5051889;28;20044;-70
2022/04/12 03:10:57;;;;;;;9.38;4.35;;;;;;;7.41;65.14;100921.63;5050389;28;20047;-70
2022/04/12 03:13:23;;;;;;;8.52;5.03;;;;;;;7.38;65.25;100923.78;5051607;28;20122;-70
2022/04/12 03:15:48;;;;;;;9.85;4.93;;;;;;;7.36;65.23;100929.25;5051437;28;20021;-70
2022/04/12 03:18:16;;;;;;;7.38;4.63;;;;;;;7.36;65.50;100934.56;5051694;28;20032;-70
2022/04/12 03:20:41;;;;;;;8.35;4.45;;;;;;;7.33;65.28;100926.94;5051159;28;20035;-70
2022/04/12 03:23:06;;;;;;;10.95;4.60;;;;;;;7.33;65.13;100913.66;5051608;28;20036;-70
2022/04/12 03:25:32;;;;;;;10.68;4.93;;;;;;;7.28;65.46;100904.59;5049927;28;20040;-70
2022/04/12 03:27:57;;;;;;;9.75;4.82;;;;;;;7.30;65.77;100910.53;5050225;28;20037;-70
2022/04/12 03:30:23;;;;;;;12.88;5.55;;;;;;;7.29;65.88;100903.59;5051332;28;20116;-70
2022/04/12 03:32:48;;;;;;;11.15;5.07;;;;;;;7.30;65.90;100905.25;5051303;28;20032;-70
2022/04/12 03:35:13;;;;;;;11.00;4.43;;;;;;;7.30;65.68;100906.06;5049977;28;20025;-70
2022/04/12 03:37:39;;;;;;;10.95;5.15;;;;;;;7.30;65.78;100900.75;5051297;28;20036;-70
2022/04/12 03:40:06;;;;;;;7.68;4.25;;;;;;;7.30;66.17;100887.50;5033081;28;20028;-70
2022/04/12 03:42:31;;;;;;;10.63;5.68;;;;;;;7.29;66.01;100888.50;5051074;28;20480;-69
2022/04/12 03:44:56;;;;;;;9.25;4.72;;;;;;;7.27;66.29;100890.50;5050788;28;20032;-69
2022/04/12 03:47:22;;;;;;;9.27;4.55;;;;;;;7.22;65.79;100882.22;5050900;28;20161;-70
2022/04/12 03:49:47;;;;;;;10.70;5.05;;;;;;;7.21;66.00;100897.31;5049830;28;20033;-69
2022/04/12 03:52:12;;;;;;;11.20;5.05;;;;;;;7.20;66.47;100903.66;5051092;28;20065;-69
2022/04/12 03:54:38;;;;;;;8.93;4.55;;;;;;;7.18;66.60;100907.47;5050534;28;20084;-70
2022/04/12 03:57:03;;;;;;;11.63;4.53;;;;;;;7.13;67.01;100905.31;5049518;28;20044;-70
2022/04/12 03:59:29;;;;;;;10.70;5.07;;;;;;;7.12;67.30;100906.31;5050810;28;20040;-69
2022/04/12 04:01:54;;;;;;;11.00;5.18;;;;;;;7.05;66.93;100905.38;5050881;28;20106;-69
2022/04/12 04:04:20;;;;;;;9.25;5.35;;;;;;;7.08;67.50;100914.81;5049622;28;20025;-69
2022/04/12 04:06:46;;;;;;;9.88;5.30;;;;;;;7.06;67.46;100911.50;5050666;28;20120;-69
2022/04/12 04:09:12;;;;;;;11.32;5.22;;;;;;;7.02;67.58;100900.38;5049565;28;20427;-69
2022/04/12 04:11:43;;;;;;;12.40;5.10;;;;;;;7.01;67.80;100894.25;5050084;28;20143;-69
2022/04/12 04:14:10;;;;;;;12.98;4.82;;;;;;;6.98;67.86;100878.69;5049872;28;20065;-70
2022/04/12 04:16:38;;;;;;;10.98;5.10;;;;;;;7.05;67.36;100886.81;5050623;28;20017;-70
2022/04/12 04:19:03;;;;;;;8.15;4.70;;;;;;;7.05;67.30;100885.94;5050600;28;20029;-70
2022/04/12 04:21:29;;;;;;;8.10;4.68;;;;;;;7.14;67.28;100885.75;5050513;28;20385;-70
2022/04/12 04:23:54;;;;;;;11.80;4.72;;;;;;;7.19;67.28;100890.53;5050485;28;20112;-70
2022/04/12 04:26:19;;;;;;;11.98;5.15;;;;;;;7.21;67.78;100885.91;5050295;28;20398;-69
2022/04/12 04:28:45;;;;;;;12.00;5.63;;;;;;;7.22;67.51;100887.53;5050690;28;20554;-69
2022/04/12 04:31:11;;;;;;;9.65;4.60;;;;;;;7.22;67.54;100887.53;5050338;28;20029;-69
2022/04/12 04:33:36;;;;;;;9.85;5.15;;;;;;;7.25;67.14;100887.19;5050249;28;20635;-69
2022/04/12 04:36:02;;;;;;;12.18;5.28;;;;;;;7.27;67.25;100892.34;5050297;28;21058;-69
2022/04/12 04:38:28;;;;;;;12.18;5.07;;;;;;;7.32;67.76;100898.75;5050076;28;20126;-69
2022/04/12 04:40:53;;;;;;;10.48;4.75;;;;;;;7.34;67.68;100907.38;5049711;28;20025;-69
2022/04/12 04:43:18;;;;;;;10.73;5.15;;;;;;;7.31;67.21;100899.78;5049791;28;20116;-69
2022/04/12 04:45:44;;;;;;;13.50;5.05;;;;;;;7.32;68.27;100895.28;5049765;28;20025;-69
2022/04/12 04:48:10;;;;;;;9.98;4.75;;;;;;;7.27;67.75;100898.47;5049611;28;20037;-69
2022/04/12 04:50:35;;;;;;;9.52;4.80;;;;;;;7.23;67.65;100898.00;5047281;28;20033;-69
2022/04/12 04:53:03;;;;;;;10.52;5.25;;;;;;;7.21;68.23;100899.97;5049630;28;20064;-69
2022/04/12 04:55:29;;;;;;;14.52;6.25;;;;;;;7.18;68.06;100894.22;5049399;28;20041;-69
2022/04/12 04:57:58;;;;;;;12.45;5.30;;;;;;;7.16;68.18;100891.72;5048264;28;20047;-69
2022/04/12 05:00:25;;;;;;;10.82;4.88;;;;;;;7.15;68.15;100890.06;5049418;28;20078;-69
2022/04/12 05:02:53;;;;;;;9.63;5.40;;;;;;;7.13;68.05;100904.50;5049477;28;20311;-69
2022/04/12 05:05:19;;;;;;;11.75;5.57;;;;;;;7.12;68.33;100902.84;5048565;28;20090;-69
2022/04/12 05:07:46;;;;;;;10.85;5.22;;;;;;;7.15;68.94;100915.75;5049230;28;20060;-69
2022/04/12 05:10:14;;;;;;;11.32;5.35;;;;;;;7.12;68.95;100919.56;5049215;28;20029;-69
2022/04/12 05:12:40;;;;;;;11.40;5.93;;;;;;;7.15;69.02;100921.91;5049269;28;20078;-69
2022/04/12 05:15:05;;;;;;;9.52;4.80;;;;;;;7.15;69.53;100919.25;5049266;28;20021;-69
2022/04/12 05:17:31;;;;;;;13.68;6.53;;;;;;;7.19;69.21;100919.72;5047922;28;20499;-69
2022/04/12 05:19:56;;;;;;;14.02;6.57;;;;;;;7.30;69.13;100927.28;5049266;28;20439;-69
2022/04/12 05:22:23;;;;;;;16.20;8.45;;;;;;;7.35;69.35;100921.47;5049211;28;20033;-69
2022/04/12 05:24:49;;;;;;;12.65;5.82;;;;;;;7.45;68.65;100933.50;5049007;28;20024;-69
2022/04/12 05:27:15;;;;;;;12.23;5.65;;;;;;;7.56;68.78;100934.94;5048967;28;20441;-69
2022/04/12 05:29:41;;;;;;;13.07;5.35;;;;;;;7.69;68.65;100937.03;5049086;28;20540;-69
2022/04/12 05:32:08;;;;;;;11.32;5.68;;;;;;;7.85;69.31;100933.44;5048961;28;20534;-69
2022/04/12 05:34:33;;;;;;;12.43;5.50;;;;;;;7.94;66.89;100918.25;5048892;28;20519;-69
2022/04/12 05:36:58;;;;;;;12.35;5.68;;;;;;;8.06;67.09;100911.53;5048967;28;20342;-69
2022/04/12 05:39:24;;;;;;;11.45;5.93;;;;;;;8.21;66.75;100917.72;5048713;28;20480;-69
2022/04/12 05:41:49;;;;;;;10.30;5.43;;;;;;;8.30;67.22;100908.66;5048867;28;20021;-69
2022/04/12 05:44:14;;;;;;;11.52;5.97;;;;;;;8.66;65.27;100912.50;5048447;28;20033;-69
2022/04/12 05:46:40;;;;;;;12.02;5.05;;;;;;;8.88;64.88;100916.06;5047362;28;20029;-69
2022/04/12 05:49:05;;;;;;;13.10;6.47;;;;;;;8.83;64.30;100907.81;5048897;28;20025;-69
2022/04/12 05:51:30;;;;;;;12.27;5.30;;;;;;;8.78;64.50;100908.41;5048693;28;20099;-69
2022/04/12 05:53:56;;;;;;;12.82;6.30;;;;;;;8.67;64.52;100892.88;5048292;28;20036;-69
2022/04/12 05:56:21;;;;;;;9.77;6.03;;;;;;;8.64;65.39;100902.03;5048586;28;20132;-69
2022/04/12 05:58:47;;;;;;;9.88;5.30;;;;;;;8.63;65.45;100915.53;5047567;28;20047;-69
2022/04/12 06:01:12;;;;;;;10.98;5.72;;;;;;;8.54;65.57;100906.78;5046444;28;20040;-69
2022/04/12 06:03:37;;;;;;;13.07;5.70;;;;;;;8.52;66.36;100922.94;5048677;28;20068;-69
2022/04/12 06:06:03;;;;;;;12.55;5.90;;;;;;;8.51;66.38;100920.47;5048384;28;20061;-69
2022/04/12 06:08:29;;;;;;;10.32;5.43;;;;;;;8.59;66.16;100928.34;5048570;28;20040;-71
2022/04/12 06:10:54;;;;;;;14.27;5.82;;;;;;;8.67;66.38;100930.09;5048510;28;20033;-69
2022/04/12 06:13:19;;;;;;;13.07;6.50;;;;;;;8.78;66.53;100924.34;5048675;28;20072;-69
2022/04/12 06:15:45;;;;;;;12.00;6.38;;;;;;;8.93;66.44;100927.00;5048712;28;20067;-69
2022/04/12 06:18:11;;;;;;;12.20;6.45;;;;;;;9.11;65.03;100921.28;5052561;28;20025;-69
2022/04/12 06:20:36;;;;;;;12.23;6.10;;;;;;;9.23;65.24;100929.66;5052389;28;20037;-69
2022/04/12 06:23:02;;;;;;;11.90;6.00;;;;;;;9.33;66.16;100922.19;5052178;28;20441;-69
2022/04/12 06:25:28;;;;;;;13.25;6.00;;;;;;;9.58;64.18;100917.34;5052127;28;20115;-69
2022/04/12 06:27:53;;;;;;;10.25;5.70;;;;;;;9.82;65.94;100921.47;5052229;28;20163;-69
2022/04/12 06:30:24;;;;;;;12.52;7.15;;;;;;;9.94;64.92;100911.97;5052331;28;20072;-69
2022/04/12 06:32:50;;;;;;;13.05;6.45;;;;;;;10.22;63.49;100919.19;5052461;28;20036;-69
2022/04/12 06:35:16;;;;;;;15.45;7.25;;;;;;;10.52;62.66;100915.34;5052260;28;20037;-69
2022/04/12 06:37:43;;;;;;;12.15;5.85;;;;;;;10.71;61.54;100915.66;5052075;28;20029;-69
2022/04/12 06:40:10;;;;;;;13.38;5.75;;;;;;;10.79;61.50;100920.03;5051817;28;20178;-69
2022/04/12 06:42:36;;;;;;;12.20;6.55;;;;;;;10.85;61.96;100920.06;5051940;28;20032;-69
2022/04/12 06:45:02;;;;;;;13.30;6.63;;;;;;;10.95;61.66;100920.53;5051840;28;20476;-69
2022/04/12 06:47:28;;;;;;;10.35;5.70;;;;;;;10.96;60.37;100918.69;5051770;28;20064;-69
2022/04/12 06:49:54;;;;;;;13.15;6.25;;;;;;;10.94;61.15;100923.41;5050825;28;20032;-69
2022/04/12 06:52:22;;;;;;;11.88;5.60;;;;;;;10.95;61.94;100920.53;5051752;28;20029;-69
2022/04/12 06:54:48;;;;;;;11.82;6.43;;;;;;;10.96;61.70;100913.34;5051505;28;20142;-69
2022/04/12 06:57:14;;;;;;;11.63;5.57;;;;;;;10.96;62.57;100916.84;5051787;28;20543;-69
2022/04/12 06:59:40;;;;;;;12.70;6.78;;;;;;;10.97;60.95;100918.47;5051520;28;20032;-69
2022/04/12 07:02:05;;;;;;;12.38;6.07;;;;;;;11.08;61.96;100910.94;5051425;28;20039;-69
2022/04/12 07:04:31;;;;;;;12.85;7.97;;;;;;;11.18;61.36;100906.88;5051491;28;20041;-69
2022/04/12 07:06:57;;;;;;;12.57;5.80;;;;;;;11.23;60.60;100913.47;5051335;28;20072;-69
2022/04/12 07:09:27;;;;;;;11.30;5.72;;;;;;;11.28;61.10;100905.69;5051524;28;20033;-70
2022/04/12 07:11:54;;;;;;;16.77;7.50;;;;;;;11.34;62.14;100910.22;5051568;28;20060;-69
2022/04/12 07:14:19;;;;;;;14.60;6.43;;;;;;;11.40;60.18;100910.25;5051346;28;20029;-69
2022/04/12 07:16:45;;;;;;;12.20;6.07;;;;;;;11.47;61.09;100896.91;5051422;28;20027;-69
2022/04/12 07:19:10;;;;;;;14.95;6.43;;;;;;;11.60;61.78;100898.78;5051310;28;20025;-69
2022/04/12 07:21:35;;;;;;;12.43;6.22;;;;;;;11.69;62.72;100886.09;5049830;28;20075;-69
2022/04/12 07:24:03;;;;;;;11.45;5.50;;;;;;;11.90;60.21;100895.81;5051065;28;20036;-69
2022/04/12 07:26:30;;;;;;;11.20;5.55;;;;;;;12.12;58.99;100886.53;5051125;28;20443;-68
2022/04/12 07:28:55;;;;;;;10.85;6.28;;;;;;;12.57;58.35;100900.06;5050748;28;20068;-68
2022/04/12 07:31:20;;;;;;;14.05;6.05;;;;;;;12.78;56.75;100903.53;5050969;28;20147;-68
2022/04/12 07:33:46;;;;;;;13.65;5.80;;;;;;;12.95;56.41;100918.13;5049814;28;20119;-68
2022/04/12 07:36:11;;;;;;;12.50;5.82;;;;;;;13.14;55.01;100906.50;5050921;28;20074;-69
2022/04/12 07:38:37;;;;;;;8.68;4.97;;;;;;;13.57;54.59;100908.63;5050960;28;20029;-69
2022/04/12 07:41:04;;;;;;;9.15;5.38;;;;;;;13.82;53.73;100911.34;5050911;28;20063;-69
2022/04/12 07:43:30;;;;;;;12.32;5.88;;;;;;;13.97;52.04;100904.84;5050794;28;20114;-69
2022/04/12 07:45:55;;;;;;;12.05;6.30;;;;;;;14.01;52.20;100903.38;5050719;28;20091;-69
2022/04/12 07:48:21;;;;;;;11.00;5.50;;;;;;;14.10;52.75;100898.56;5050762;28;20029;-69
2022/04/12 07:50:46;;;;;;;12.55;6.38;;;;;;;14.26;52.50;100898.00;5050536;28;20056;-69
2022/04/12 07:53:11;;;;;;;12.88;5.88;;;;;;;14.65;52.05;100898.72;5050633;28;20028;-69
2022/04/12 07:55:37;;;;;;;13.15;5.45;;;;;;;15.42;48.65;100904.41;5032192;28;20049;-70
2022/04/12 07:58:02;;;;;;;11.60;5.55;;;;;;;16.19;47.88;100903.69;5050446;28;20076;-69
2022/04/12 08:00:28;;;;;;;10.85;6.07;;;;;;;16.90;45.97;100899.13;5050506;28;20032;-69
2022/04/12 08:02:53;;;;;;;11.10;5.85;;;;;;;17.36;45.36;100902.75;5050573;28;20052;-69
2022/04/12 08:05:19;;;;;;;13.25;5.72;;;;;;;18.05;45.38;100899.97;5050325;28;20033;-69
2022/04/12 08:07:47;;;;;;;9.93;5.57;;;;;;;18.68;43.23;100906.03;5050293;28;20033;-69
2022/04/12 08:10:17;;;;;;;12.13;6.05;;;;;;;19.62;41.91;100899.59;5048934;28;20523;-69
2022/04/12 08:12:44;;;;;;;9.73;5.53;;;;;;;20.51;39.05;100892.75;5050226;28;20476;-69
2022/04/12 08:15:11;;;;;;;10.13;5.55;;;;;;;21.56;39.16;100896.44;5048906;28;20082;-69
2022/04/12 08:17:36;;;;;;;10.48;5.20;;;;;;;22.22;36.73;100899.22;5050309;28;20079;-70
2022/04/12 08:20:03;;;;;;;13.07;6.32;;;;;;;22.53;34.59;100894.56;5050589;28;20040;-69
2022/04/12 08:22:28;;;;;;;11.68;6.20;;;;;;;22.75;36.01;100907.81;5050110;28;20159;-69
2022/04/12 08:24:54;;;;;;;11.75;5.05;;;;;;;22.88;34.63;100889.28;5050119;28;20403;-69
2022/04/12 08:27:19;;;;;;;9.82;5.38;;;;;;;22.21;34.37;100905.72;5049834;28;20036;-69
2022/04/12 08:29:46;;;;;;;8.13;4.82;;;;;;;21.74;35.65;100901.34;5050069;28;20078;-69
2022/04/12 08:32:11;;;;;;;9.35;4.70;;;;;;;21.59;34.94;100904.88;5049919;28;20492;-69
2022/04/12 08:34:37;;;;;;;5.75;4.35;;;;;;;21.62;36.66;100898.09;5049910;28;20107;-69
2022/04/12 08:37:05;;;;;;;9.23;4.70;;;;;;;21.76;36.35;100903.81;5049695;28;20021;-69
2022/04/12 08:39:31;;;;;;;11.00;5.07;;;;;;;21.62;35.23;100885.34;5049823;28;20112;-69
2022/04/12 08:41:58;;;;;;;8.20;4.43;;;;;;;20.77;37.66;100891.00;5049561;28;20117;-69
2022/04/12 08:44:24;;;;;;;7.40;4.03;;;;;;;19.89;38.80;100894.19;5049516;28;20057;-69
2022/04/12 08:46:50;;;;;;;10.18;5.43;;;;;;;19.24;40.89;100889.72;5049656;28;20090;-70
2022/04/12 08:49:16;;;;;;;9.30;4.30;;;;;;;18.71;43.01;100886.63;5049598;28;20396;-69
2022/04/12 08:51:43;;;;;;;9.95;4.70;;;;;;;18.43;43.61;100887.56;5049604;28;20029;-69
2022/04/12 08:54:09;;;;;;;8.18;4.15;;;;;;;18.12;42.13;100884.41;5049427;28;20052;-69
2022/04/12 08:56:35;;;;;;;7.32;4.75;;;;;;;17.71;41.96;100886.41;5049356;28;20053;-69
2022/04/12 08:59:00;;;;;;;7.93;4.13;;;;;;;17.36;45.85;100870.38;5049449;28;20048;-69
2022/04/12 09:01:25;;;;;;;5.65;3.78;;;;;;;17.38;44.47;100868.28;5049540;28;20039;-69
2022/04/12 09:03:51;;;;;;;10.23;4.20;;;;;;;17.30;46.62;100860.56;5049596;28;20033;-69
2022/04/12 09:06:16;;;;;;;7.88;3.55;;;;;;;17.27;46.16;100861.06;5049181;28;20358;-69
2022/04/12 09:08:42;;;;;;;7.65;3.88;;;;;;;17.14;44.23;100866.75;5049267;28;20121;-69
2022/04/12 09:11:08;;;;;;;6.43;4.47;;;;;;;17.03;46.25;100873.81;5049414;28;20477;-69
2022/04/12 09:13:35;;;;;;;6.60;3.55;;;;;;;16.95;45.28;100871.47;5047765;28;20032;-69
2022/04/12 09:16:06;;;;;;;6.20;3.70;;;;;;;17.04;46.45;100860.06;5049037;28;20036;-69
2022/04/12 09:18:43;;;;;;;6.47;4.03;;;;;;;17.22;45.99;100869.06;5047977;28;20036;-69
2022/04/12 09:21:11;;;;;;;5.57;3.65;;;;;;;17.29;46.84;100862.47;5049169;28;20089;-69
2022/04/12 09:23:37;;;;;;;8.50;3.45;;;;;;;17.38;48.97;100876.38;5049184;28;20057;-69
2022/04/12 09:26:02;;;;;;;7.05;3.58;;;;;;;17.48;46.95;100871.16;5048851;28;20591;-69
2022/04/12 09:28:41;;;;;;;8.00;3.22;;;;;;;17.52;46.94;100864.19;5048793;28;20062;-69
2022/04/12 09:31:20;;;;;;;10.00;3.90;;;;;;;17.56;47.14;100855.66;5048762;28;20072;-69
2022/04/12 09:33:47;;;;;;;11.88;3.88;;;;;;;17.64;47.63;100849.84;5049007;28;20036;-69
2022/04/12 09:36:13;;;;;;;8.32;4.38;;;;;;;17.68;45.81;100845.59;5049084;28;20029;-69
2022/04/12 09:38:40;;;;;;;6.03;3.50;;;;;;;17.73;47.06;100834.88;5048854;28;20035;-69
2022/04/12 09:41:19;;;;;;;8.80;4.43;;;;;;;17.71;45.75;100837.00;5048853;28;20480;-69
2022/04/12 09:43:57;;;;;;;6.47;3.78;;;;;;;17.65;45.25;100835.28;5049076;28;20061;-69
2022/04/12 09:46:24;;;;;;;7.10;3.65;;;;;;;17.63;43.75;100835.56;5049091;28;20106;-69
2022/04/12 09:48:52;;;;;;;6.93;3.88;;;;;;;17.62;44.56;100825.81;5048886;28;20040;-69
2022/04/12 09:51:20;;;;;;;7.50;4.10;;;;;;;17.70;44.64;100832.69;5051157;28;20112;-69
2022/04/12 09:53:46;;;;;;;5.53;3.55;;;;;;;17.85;49.44;100835.66;5055742;28;20083;-69
2022/04/12 09:56:20;;;;;;;6.57;3.50;;;;;;;17.95;45.60;100830.44;5055270;28;20054;-69
2022/04/12 09:58:48;;;;;;;9.25;3.58;;;;;;;18.03;44.44;100837.31;5055515;28;20037;-69
2022/04/12 10:01:15;;;;;;;6.55;3.40;;;;;;;17.92;45.41;100825.53;5055419;28;20112;-69
2022/04/12 10:03:46;;;;;;;11.20;5.05;;;;;;;18.07;45.67;100837.63;5055296;28;20471;-69
2022/04/12 10:06:14;;;;;;;5.15;3.60;;;;;;;18.13;47.28;100836.63;5054937;28;20496;-69
2022/04/12 10:08:40;;;;;;;6.57;3.85;;;;;;;18.18;44.59;100851.03;5055417;28;20029;-69
2022/04/12 10:11:08;;;;;;;6.38;3.25;;;;;;;18.28;46.57;100847.66;5054036;28;20672;-69
2022/04/12 10:13:33;;;;;;;8.40;4.70;;;;;;;18.40;43.47;100842.16;5055205;28;20036;-69
2022/04/12 10:15:59;;;;;;;5.65;3.42;;;;;;;18.46;48.23;100851.97;5055280;28;20033;-69
2022/04/12 10:18:25;;;;;;;5.93;3.50;;;;;;;18.58;46.95;100833.75;5055052;28;20029;-69
2022/04/12 10:20:51;;;;;;;9.18;4.22;;;;;;;18.55;47.27;100836.97;5055223;28;20461;-69
2022/04/12 10:23:19;;;;;;;7.78;3.70;;;;;;;18.59;46.55;100827.28;5055208;28;20440;-69
2022/04/12 10:25:50;;;;;;;5.45;3.03;;;;;;;18.67;46.00;100817.94;5054965;28;20162;-69
2022/04/12 10:28:17;;;;;;;5.75;3.00;;;;;;;18.69;44.64;100806.88;5055449;28;20037;-69
2022/04/12 10:30:42;;;;;;;11.77;5.57;;;;;;;18.76;45.64;100811.06;5055017;28;20409;-69
2022/04/12 10:33:17;;;;;;;6.97;3.25;;;;;;;18.90;42.96;100810.66;5054784;28;20029;-69
2022/04/12 10:35:42;;;;;;;8.73;3.70;;;;;;;19.09;42.13;100797.63;5054956;28;20487;-69
2022/04/12 10:38:09;;;;;;;8.63;3.88;;;;;;;19.26;43.59;100790.25;5055064;28;20211;-69
2022/04/12 10:40:35;;;;;;;5.47;3.65;;;;;;;19.42;43.94;100794.69;5054976;28;20154;-69
2022/04/12 10:43:03;;;;;;;8.70;3.53;;;;;;;19.56;42.53;100786.16;5054953;28;20123;-69
2022/04/12 10:45:33;;;;;;;6.47;2.60;;;;;;;19.67;44.53;100785.19;5054911;28;20028;-69
2022/04/12 10:48:00;;;;;;;10.20;3.65;;;;;;;19.69;43.81;100783.84;5054835;28;20089;-69
2022/04/12 10:50:26;;;;;;;8.35;3.72;;;;;;;19.61;42.01;100778.09;5054994;28;20553;-69
2022/04/12 10:52:51;;;;;;;8.48;3.80;;;;;;;19.60;43.32;100771.88;5054810;28;20029;-69
2022/04/12 10:55:22;;;;;;;5.93;3.42;;;;;;;19.80;43.38;100790.16;5054793;28;20056;-69
2022/04/12 10:57:50;;;;;;;9.48;4.53;;;;;;;19.86;40.90;100783.72;5054784;28;20048;-69
2022/04/12 11:00:22;;;;;;;9.40;5.45;;;;;;;19.79;40.90;100785.03;5054643;28;20115;-69
2022/04/12 11:03:00;;;;;;;8.07;3.78;;;;;;;19.75;42.75;100784.72;5050927;28;20475;-69
2022/04/12 11:05:42;;;;;;;5.75;3.78;;;;;;;19.83;41.57;100772.59;5051135;28;20033;-68
2022/04/12 11:08:13;;;;;;;;;;;;;;;19.83;42.62;100762.59;5051535;28;20122;-69
2022/04/12 11:10:39;;;;;;;7.70;3.72;;;;;;;19.76;42.94;100762.00;5051023;28;19919;-69
2022/04/12 11:13:10;;;;;;;6.32;4.45;;;;;;;19.72;43.17;100765.47;5050712;28;20392;-69
2022/04/12 11:15:37;;;;;;;8.45;3.78;;;;;;;19.72;41.72;100760.88;5050612;28;20120;-69
2022/04/12 11:18:10;;;;;;;7.90;3.05;;;;;;;19.74;44.32;100774.97;5050455;28;20028;-69
2022/04/12 11:20:39;;;;;;;4.80;3.08;;;;;;;19.72;42.21;100769.00;5050460;28;20560;-69
2022/04/12 11:23:11;;;;;;;9.90;2.97;;;;;;;19.81;42.34;100777.47;5050811;28;20055;-69
2022/04/12 11:25:49;;;;;;;;;;;;;;;20.13;43.35;100786.31;5051277;28;20021;-69